LICC/CTA METAR and TAF weather

Enter ICAO airport designator
Station Type Date Time Source
LICC METAR 2022/01/29 01:50 UTC NOAA

LICC 290150Z 25009KT CAVOK 07/05 Q1020


Station Type Date Time Source
LICC Decoded METAR 2022/01/29 01:50 UTC NOAA

Catania / Fontanarossa, Italy (LICC) 37-28N 015-03E 17M
Jan 28, 2022 - 08:50 PM EST / 2022.01.29 0150 UTC
Wind: from the WSW (250 degrees) at 10 MPH (9 KT):0
Visibility: greater than 7 mile(s):0
Temperature: 44 F (7 C)
Dew Point: 41 F (5 C)
Relative Humidity: 87%
Pressure (altimeter): 30.12 in. Hg (1020 hPa)
ob: LICC 290150Z 25009KT CAVOK 07/05 Q1020
cycle: 2

Station Type Date Time Source
LICC TAF 2022/01/28 18:24 UTC NOAA

TAF LICC 281700Z 2818/2918 26006KT 9999 BKN040
TEMPO 2823/2906 RA
BECMG 2908/2910 06010KT

Example: see airport list